Detall de PIREP

Printer-friendly versionPDF version

[2008/09/20 16:38:00]
Flight IATA:CT1006
Pilot Number:026
Company ICAO:CAT
Aircraft Type:B75F/E
PAX:0
Departing Airport: LEAL
Destination Airport: LICJ
Alternate Airport:LIRA
Online: VATSIM
Route:MITOS/N0460F300 UN851 MHN UM603 ALG/N0460F310 UM731 SODIO UM732 CAR UM871 KAPIL
Flight Level:FL310
No Slew and time accel
No pause
Crash detect
Detect pilot in Cockpit between each 30 and 45 minutes
16:38 Zero fuel Weight: 229581 Lbs, Fuel Weight: 26468 Lbs
16:38 VATSIM:LEAL 201630Z 09008KT 070V130 9999 FEW045 26/19 Q1018 NOSIG
16:38 VATSIM:LICJ 201620Z 04010KT 9999 FEW018 BKN025 22/10 Q1015
16:39 VOICE CATALONIAN / ALMOGAVERS ROUTE
16:41 Parking Brakes off
16:47 Take-off
16:47 Take off Weight: 255009 Lbs
16:47 Wind: 091º @ 008 Knots Heading: 099º
16:47 POS N38º 16´ 52´´ W000º 33´ 04´´
16:47 Gear Up: 186 Knots
16:47 Flaps:2 at 186 Knots
16:47 Flaps:1 at 183 Knots
16:48
Flaps:0 at 189 Knots
17:02 Wind:129º@027 Knots Heading: 071º Ground Speed: 449 Knots Altitude 28257 ft
17:14 TOC
17:14 Fuel Weight: 18369 Lb
17:17 Wind:117º@009 Knots Heading: 069º Ground Speed: 473 Knots Altitude 31824 ft
17:32 Wind:019º@015 Knots Heading: 074º Ground Speed: 466 Knots Altitude 32142 ft
17:47 Wind:030º@036 Knots Heading: 117º Ground Speed: 469 Knots Altitude 32109 ft
18:02 Wind:184º@039 Knots Heading: 112º Ground Speed: 461 Knots Altitude 33074 ft
18:09 TOD
18:09 Fuel Weight: 10019 Lb
18:17 Wind:006º@023 Knots Heading: 107º Ground Speed: 370 Knots Altitude 14881 ft
18:29 Flaps:1 at 177 Knots
18:29 Gear Down: 177 Knots
18:29 Flaps:2 at 174 Knots
18:30 Flaps:3 at 158 Knots
18:30 Flaps:4 at 155 Knots
18:30 Flaps:5 at 154 Knots
18:30 TouchDown:Rate -209 ft/min Speed: 150 Knots
18:30 VATSIM:LICJ 201750Z 34011KT 310V010 9999 SCT022 BKN040 22/13 Q10
15
18:30 Land
18:30 Wind:000º@008 Knots
18:30 Heading: 062º
18:30 Flight Duration: 01:43
18:30 Landing Weight: 238455 Lbs
18:30 POS N38º 10´ 43´´ E013º 06´ 00´´
18:34 Parking brakes on
18:34 Block to Block Duration: 01:53
18:34 Final Fuel: 8408 Lbls
18:34 Spent Fuel: 18060 Lbls
18:34 Flight Length: 714 NM
18:34 TOD Land Length: 110 NM

Exportar CSV

Powered by Drupal - Modified by Danger4k